GMME Airport Information

Runway Information
Runway 04 Length 11483 ft width 148 ft
Elevation 273 ft Threshold 0 ft Heading 31
Runway 22 Length 11483 ft Width 148 ft
Elevation 240 ft Threshold 0 ft Heading 211
Airport Frequencies
Type APP Name APP Frequency 118.9 MHZ
Type TWR Name TWR Frequency 118.3 MHZ
Airport Navaids
Type VOR-DME Name Rabat Frequency 116500 KHZ
Type NDB Name Rabat Frequency 332 KHZ
Airport Weather Information & NOTAM
ADDS - METARS form results

(2054 UTC 26 February 2021)
Data provider http://aviationweather.gov/metar/data/
 
METAR text: GMME 262030Z 00000KT 8000 SCT020 SCT100 14/12 Q1021 NOSIG
Conditions at: GMME (RABAT/SALE (RMAF, MA) observed 2030 UTC 26 February 2021
Temperature: 14.0°C (57°F)
Dewpoint: 12.0°C (54°F) [RH = 88%]
Pressure (altimeter): 30.15 inches Hg (1021.0 mb)
Winds: calm
Visibility: 5 miles ( 8 km)
Ceiling: at least 12,000 feet AGL
Clouds: scattered clouds at 2000 feet AGL
scattered clouds at 10000 feet AGL
Weather: no significant weather observed at this time

METAR text: GMME 262000Z 00000KT 8000 SCT020 SCT100 14/11 Q1021 NOSIG
Conditions at: GMME (RABAT/SALE (RMAF, MA) observed 2000 UTC 26 February 2021
Temperature: 14.0°C (57°F)
Dewpoint: 11.0°C (52°F) [RH = 82%]
Pressure (altimeter): 30.15 inches Hg (1021.0 mb)
Winds: calm
Visibility: 5 miles ( 8 km)
Ceiling: at least 12,000 feet AGL
Clouds: scattered clouds at 2000 feet AGL
scattered clouds at 10000 feet AGL
Weather: no significant weather observed at this time

Forecast for: GMME (RABAT/SALE (RMAF, MA)
Text: TAF GMME 261700Z 2618/2724 180010KT 7000 SCT013 SCT020 BKN070
Forecast period: 1800 UTC 26 February 2021 to 0000 UTC 28 February 2021
Forecast type: FROM: standard forecast or significant change
Winds: from the S (180 degrees) at 12 MPH (10 knots; 5.1 m/s)
Visibility: 4 miles (7 km)
Ceiling: 7000 feet AGL
Clouds: scattered clouds at 1300 feet AGL
scattered clouds at 2000 feet AGL
broken clouds at 7000 feet AGL
Weather: no significant weather forecast for this period
Text: TEMPO 2618/2703 4000 RA SCT013TCU BKN020 BKN080
Forecast period: 1800 UTC 26 February 2021 to 0300 UTC 27 February 2021
Forecast type: TEMPORARY: The following changes expected for less than half the time period
Visibility: 2.49 miles (4.01 km)
Ceiling: 2000 feet AGL
Clouds: scattered clouds at 1300 feet AGL
broken clouds at 2000 feet AGL
broken clouds at 8000 feet AGL
Weather: RA  (moderate rain)
Text: TEMPO 2717/2724 RA SCT010 BKN015
Forecast period: 1700 UTC 27 February 2021 to 0000 UTC 28 February 2021
Forecast type: TEMPORARY: The following changes expected for less than half the time period
Visibility: missing
Ceiling: 1500 feet AGL
Clouds: scattered clouds at 1000 feet AGL
broken clouds at 1500 feet AGL
Weather: RA  (moderate rain)